createdAt,value
2023-08-12T00:00:37.515Z,5.60
2023-08-12T00:03:04.207Z,6.60
2023-08-12T00:05:31.207Z,5.50
2023-08-12T00:07:57.735Z,6.25
2023-08-12T00:10:24.156Z,5.43
2023-08-12T00:12:50.613Z,5.75
2023-08-12T00:15:17.066Z,5.50
2023-08-12T00:17:43.584Z,5.13
2023-08-12T00:20:12.099Z,5.07
2023-08-12T00:22:39.295Z,5.78
2023-08-12T00:25:06.839Z,5.43
2023-08-12T00:27:33.223Z,5.22
2023-08-12T00:29:59.671Z,4.90
2023-08-12T00:32:26.105Z,4.95
2023-08-12T00:34:52.584Z,5.65
2023-08-12T00:37:18.988Z,5.47
2023-08-12T00:39:45.392Z,4.97
2023-08-12T00:42:11.759Z,5.50
2023-08-12T00:44:38.200Z,6.35
2023-08-12T00:47:04.730Z,4.68
2023-08-12T00:49:32.464Z,4.38
2023-08-12T00:51:59.115Z,4.68
2023-08-12T00:54:26.811Z,4.50
2023-08-12T00:56:54.429Z,4.20
2023-08-12T00:59:21.705Z,4.97
2023-08-12T01:01:48.367Z,4.80
2023-08-12T01:04:14.815Z,4.90
2023-08-12T01:06:41.901Z,4.25
2023-08-12T01:09:08.939Z,4.47
2023-08-12T01:11:50.754Z,4.25
2023-08-12T01:14:29.511Z,4.60
2023-08-12T01:17:04.804Z,4.97
2023-08-12T01:19:31.448Z,4.90
2023-08-12T01:22:00.447Z,5.32
2023-08-12T01:24:26.845Z,4.63
2023-08-12T01:26:53.679Z,4.25
2023-08-12T01:29:20.722Z,4.97
2023-08-12T01:31:50.249Z,4.20
2023-08-12T01:34:32.023Z,5.05
2023-08-12T01:36:59.987Z,4.65
2023-08-12T01:39:27.493Z,3.90
2023-08-12T01:41:54.853Z,4.72
2023-08-12T01:44:21.393Z,4.38
2023-08-12T01:46:47.826Z,4.25
2023-08-12T01:49:14.302Z,5.00
2023-08-12T01:51:40.777Z,4.68
2023-08-12T01:54:07.192Z,4.03
2023-08-12T01:56:33.709Z,4.10
2023-08-12T01:59:00.082Z,4.35
2023-08-12T02:01:26.502Z,4.68
2023-08-12T02:03:53.026Z,4.30
2023-08-12T02:06:20.745Z,4.78
2023-08-12T02:08:47.152Z,4.18
2023-08-12T02:11:13.637Z,3.95
2023-08-12T02:13:40.018Z,4.25
2023-08-12T02:16:06.526Z,4.80
2023-08-12T02:18:32.917Z,4.80
2023-08-12T02:20:59.333Z,4.32
2023-08-12T02:23:25.705Z,4.50
2023-08-12T02:25:53.161Z,4.38
2023-08-12T02:28:19.560Z,4.65
2023-08-12T02:30:45.952Z,4.90
2023-08-12T02:33:12.385Z,4.20
2023-08-12T02:35:39.594Z,4.45
2023-08-12T02:38:06.102Z,5.13
2023-08-12T02:40:32.501Z,4.18
2023-08-12T02:42:58.930Z,4.30
2023-08-12T02:45:25.369Z,5.15
2023-08-12T02:47:51.832Z,5.03
2023-08-12T02:50:18.273Z,4.57
2023-08-12T02:52:44.700Z,4.55
2023-08-12T02:55:11.257Z,5.10
2023-08-12T02:57:37.713Z,4.50
2023-08-12T03:00:05.242Z,4.55
2023-08-12T03:02:31.706Z,4.82
2023-08-12T03:04:58.141Z,4.47
2023-08-12T03:07:24.772Z,5.20
2023-08-12T03:09:51.180Z,4.70
2023-08-12T03:12:17.654Z,4.38
2023-08-12T03:14:44.171Z,4.63
2023-08-12T03:17:10.821Z,4.57
2023-08-12T03:19:37.526Z,4.60
2023-08-12T03:22:03.995Z,4.75
2023-08-12T03:24:30.406Z,4.38
2023-08-12T03:26:56.805Z,4.70
2023-08-12T03:29:23.189Z,4.78
2023-08-12T03:31:49.601Z,4.70
2023-08-12T03:34:16.017Z,5.32
2023-08-12T03:36:42.440Z,5.32
2023-08-12T03:39:08.873Z,4.93
2023-08-12T03:41:35.324Z,4.20
2023-08-12T03:44:01.757Z,4.95
2023-08-12T03:46:28.484Z,5.25
2023-08-12T03:48:54.989Z,5.10
2023-08-12T03:51:21.377Z,5.20
2023-08-12T03:53:47.795Z,4.50
2023-08-12T03:56:16.249Z,5.03
2023-08-12T03:58:43.397Z,4.43
2023-08-12T04:01:09.836Z,5.55
2023-08-12T04:03:36.346Z,4.88
2023-08-12T04:06:04.380Z,5.25
2023-08-12T04:08:31.486Z,5.82
2023-08-12T04:10:57.869Z,5.22
2023-08-12T04:13:24.309Z,4.80
2023-08-12T04:15:51.392Z,6.45
2023-08-12T04:18:18.015Z,5.40
2023-08-12T04:20:46.528Z,5.50
2023-08-12T04:23:12.931Z,5.57
2023-08-12T04:25:39.328Z,5.53
2023-08-12T04:28:05.808Z,5.18
2023-08-12T04:30:32.219Z,5.20
2023-08-12T04:32:58.665Z,4.82
2023-08-12T04:35:25.126Z,5.47
2023-08-12T04:37:51.492Z,4.60
2023-08-12T04:40:17.909Z,4.97
2023-08-12T04:42:44.287Z,5.15
2023-08-12T04:45:11.260Z,5.30
2023-08-12T04:47:38.238Z,5.65
2023-08-12T04:50:04.907Z,5.25
2023-08-12T04:52:31.629Z,5.25
2023-08-12T04:54:58.079Z,5.10
2023-08-12T04:57:24.476Z,4.93
2023-08-12T04:59:50.899Z,4.47
2023-08-12T05:02:19.532Z,5.40
2023-08-12T05:04:49.899Z,4.93
2023-08-12T05:07:16.645Z,4.63
2023-08-12T05:09:45.090Z,4.53
2023-08-12T05:12:12.298Z,4.63
2023-08-12T05:14:40.111Z,4.53
2023-08-12T05:17:06.761Z,4.32
2023-08-12T05:19:33.626Z,5.40
2023-08-12T05:22:00.052Z,4.35
2023-08-12T05:24:26.474Z,4.82
2023-08-12T05:26:52.921Z,4.82
2023-08-12T05:29:19.305Z,4.63
2023-08-12T05:31:46.719Z,4.82
2023-08-12T05:34:13.460Z,4.53
2023-08-12T05:36:40.316Z,4.90
2023-08-12T05:39:07.142Z,4.13
2023-08-12T05:41:33.575Z,4.38
2023-08-12T05:44:00.002Z,5.00
2023-08-12T05:46:26.431Z,4.63
2023-08-12T05:48:52.800Z,4.50
2023-08-12T05:51:20.009Z,4.45
2023-08-12T05:53:46.471Z,4.38
2023-08-12T05:56:13.264Z,5.07
2023-08-12T05:58:39.655Z,4.70
2023-08-12T06:01:06.131Z,4.93
2023-08-12T06:03:32.633Z,5.47
2023-08-12T06:05:59.063Z,5.68
2023-08-12T06:08:25.616Z,6.05
2023-08-12T06:10:52.090Z,5.13
2023-08-12T06:13:18.525Z,5.22
2023-08-12T06:15:44.995Z,4.55
2023-08-12T06:18:11.492Z,4.90
2023-08-12T06:20:38.055Z,4.82
2023-08-12T06:23:04.537Z,4.90
2023-08-12T06:25:30.990Z,4.53
2023-08-12T06:27:59.603Z,4.78
2023-08-12T06:30:26.030Z,4.78
2023-08-12T06:32:52.463Z,4.45
2023-08-12T06:35:18.999Z,5.07
2023-08-12T06:37:45.432Z,4.50
2023-08-12T06:40:11.946Z,5.22
2023-08-12T06:42:38.362Z,4.90
2023-08-12T06:45:05.296Z,4.82
2023-08-12T06:47:33.066Z,5.53
2023-08-12T06:49:59.597Z,4.55
2023-08-12T06:52:26.096Z,4.13
2023-08-12T06:54:52.574Z,5.18
2023-08-12T06:57:19.148Z,4.57
2023-08-12T06:59:45.569Z,4.35
2023-08-12T07:02:13.436Z,4.35
2023-08-12T07:04:40.122Z,3.83
2023-08-12T07:07:06.566Z,4.20
2023-08-12T07:09:32.958Z,4.60
2023-08-12T07:11:59.638Z,4.13
2023-08-12T07:14:26.792Z,4.38
2023-08-12T07:16:53.229Z,4.22
2023-08-12T07:19:19.915Z,4.82
2023-08-12T07:21:46.378Z,4.50
2023-08-12T07:24:12.801Z,4.18
2023-08-12T07:26:39.265Z,4.15
2023-08-12T07:29:05.736Z,5.10
2023-08-12T07:31:32.192Z,4.38
2023-08-12T07:33:58.683Z,4.10
2023-08-12T07:36:25.153Z,5.18
2023-08-12T07:38:51.586Z,4.35
2023-08-12T07:41:18.012Z,4.10
2023-08-12T07:43:44.416Z,4.95
2023-08-12T07:46:10.854Z,4.45
2023-08-12T07:48:38.472Z,4.65
2023-08-12T07:51:05.052Z,4.15
2023-08-12T07:53:31.624Z,4.30
2023-08-12T07:55:58.140Z,4.70
2023-08-12T07:58:24.544Z,3.63
2023-08-12T08:00:53.388Z,4.95
2023-08-12T08:03:19.830Z,4.22
2023-08-12T08:05:48.060Z,4.13
2023-08-12T08:08:14.784Z,3.67
2023-08-12T08:10:41.242Z,4.22
2023-08-12T08:13:07.681Z,4.10
2023-08-12T08:15:34.096Z,4.35
2023-08-12T08:18:02.450Z,4.10
2023-08-12T08:20:30.235Z,3.92
2023-08-12T08:22:56.791Z,4.65
2023-08-12T08:25:23.398Z,4.32
2023-08-12T08:27:50.208Z,4.07
2023-08-12T08:30:16.625Z,4.00
2023-08-12T08:32:43.101Z,4.55
2023-08-12T08:35:09.587Z,4.28
2023-08-12T08:37:36.029Z,4.82
2023-08-12T08:40:02.546Z,4.40
2023-08-12T08:42:30.566Z,4.68
2023-08-12T08:44:59.027Z,5.05
2023-08-12T08:47:28.528Z,5.90
2023-08-12T08:49:56.925Z,5.00
2023-08-12T08:52:24.327Z,5.45
2023-08-12T08:54:53.292Z,4.82
2023-08-12T08:57:22.079Z,5.68
2023-08-12T09:02:24.416Z,5.05
2023-08-12T09:04:51.165Z,5.05
2023-08-12T09:07:17.579Z,5.07
2023-08-12T09:09:49.596Z,4.43
2023-08-12T09:12:17.348Z,4.57
2023-08-12T09:14:44.356Z,4.53
2023-08-12T09:17:11.169Z,4.80
2023-08-12T09:19:37.684Z,4.50
2023-08-12T09:22:05.447Z,4.07
2023-08-12T09:24:31.988Z,4.72
2023-08-12T09:26:58.393Z,4.22
2023-08-12T09:29:29.598Z,4.30
2023-08-12T09:32:06.043Z,4.35
2023-08-12T09:34:32.612Z,4.72
2023-08-12T09:36:59.558Z,4.30
2023-08-12T09:39:26.923Z,3.83
2023-08-12T09:41:54.737Z,4.90
2023-08-12T09:44:21.914Z,4.03
2023-08-12T09:46:48.287Z,4.47
2023-08-12T09:49:14.883Z,5.22
2023-08-12T09:51:43.297Z,4.53
2023-08-12T09:54:10.638Z,4.22
2023-08-12T09:56:37.758Z,4.10
2023-08-12T09:59:06.597Z,4.47
2023-08-12T10:01:33.243Z,4.45
2023-08-12T10:03:59.720Z,4.70
2023-08-12T10:06:26.528Z,3.92
2023-08-12T10:08:53.912Z,4.20
2023-08-12T10:11:21.286Z,4.15
2023-08-12T10:13:48.048Z,4.75
2023-08-12T10:16:15.086Z,4.88
2023-08-12T10:18:42.187Z,4.22
2023-08-12T10:21:13.002Z,4.75
2023-08-12T10:23:40.072Z,4.15
2023-08-12T10:26:07.733Z,4.03
2023-08-12T10:28:38.075Z,4.22
2023-08-12T10:31:06.695Z,3.63
2023-08-12T10:33:37.455Z,4.30
2023-08-12T10:38:30.466Z,3.97
2023-08-12T10:41:16.122Z,4.90
2023-08-12T10:43:51.787Z,3.97
2023-08-12T10:46:29.783Z,3.38
2023-08-12T10:49:14.789Z,3.55
2023-08-12T10:51:47.125Z,3.70
2023-08-12T10:54:32.083Z,4.38
2023-08-12T10:57:09.661Z,4.03
2023-08-12T10:59:45.820Z,3.60
2023-08-12T11:02:25.789Z,3.42
2023-08-12T11:05:01.541Z,3.60
2023-08-12T11:07:36.553Z,3.60
2023-08-12T11:10:13.821Z,4.43
2023-08-12T11:12:41.424Z,3.95
2023-08-12T11:15:08.535Z,3.85
2023-08-12T11:17:36.225Z,3.90
2023-08-12T11:20:07.509Z,4.65
2023-08-12T11:22:37.701Z,4.57
2023-08-12T11:25:12.770Z,3.88
2023-08-12T11:27:39.717Z,4.10
2023-08-12T11:30:06.748Z,4.70
2023-08-12T11:32:33.518Z,4.18
2023-08-12T11:35:00.389Z,4.10
2023-08-12T11:37:26.941Z,4.68
2023-08-12T11:39:53.888Z,3.95
2023-08-12T11:42:20.461Z,4.35
2023-08-12T11:44:46.951Z,3.95
2023-08-12T11:47:13.423Z,4.55
2023-08-12T11:49:40.025Z,4.63
2023-08-12T11:52:06.666Z,5.32
2023-08-12T11:54:33.682Z,4.50
2023-08-12T11:57:00.366Z,4.78
2023-08-12T11:59:27.370Z,4.38
2023-08-12T12:01:55.717Z,4.70
2023-08-12T12:04:22.408Z,4.82
2023-08-12T12:06:49.744Z,5.05
2023-08-12T12:09:16.456Z,4.60
2023-08-12T12:11:43.107Z,4.95
2023-08-12T12:14:10.357Z,5.13
2023-08-12T12:16:47.235Z,4.13
2023-08-12T12:19:19.158Z,4.38
2023-08-12T12:21:46.393Z,3.90
2023-08-12T12:24:13.058Z,4.88
2023-08-12T12:26:39.561Z,3.67
2023-08-12T12:29:09.261Z,3.20
2023-08-12T12:31:37.506Z,3.57
2023-08-12T12:34:07.105Z,3.72
2023-08-12T12:36:37.651Z,3.65
2023-08-12T12:41:30.811Z,3.88
2023-08-12T12:43:57.339Z,3.60
2023-08-12T12:46:23.825Z,3.15
2023-08-12T12:48:50.292Z,3.35
2023-08-12T12:51:16.683Z,4.00
2023-08-12T12:53:44.609Z,3.38
2023-08-12T12:56:11.537Z,3.40
2023-08-12T12:58:38.287Z,3.28
2023-08-12T13:01:05.535Z,3.08
2023-08-12T13:03:33.261Z,3.47
2023-08-12T13:06:00.266Z,3.40
2023-08-12T13:08:26.993Z,3.30
2023-08-12T13:10:54.126Z,2.63
2023-08-12T13:13:20.832Z,3.95
2023-08-12T13:15:48.160Z,3.30
2023-08-12T13:18:14.788Z,3.53
2023-08-12T13:20:41.361Z,3.33
2023-08-12T13:23:07.927Z,3.83
2023-08-12T13:25:34.980Z,3.65
2023-08-12T13:28:02.170Z,2.83
2023-08-12T13:30:28.669Z,3.53
2023-08-12T13:32:55.929Z,3.10
2023-08-12T13:35:22.645Z,3.40
2023-08-12T13:37:50.033Z,3.70
2023-08-12T13:40:16.544Z,2.90
2023-08-12T13:42:43.269Z,2.65
2023-08-12T13:45:11.011Z,2.38
2023-08-12T13:47:37.456Z,2.97
2023-08-12T13:50:03.961Z,2.95
2023-08-12T13:52:30.407Z,2.70
2023-08-12T13:54:56.847Z,2.58
2023-08-12T13:57:23.378Z,2.75
2023-08-12T13:59:49.778Z,2.53
2023-08-12T14:02:16.519Z,3.13
2023-08-12T14:04:42.977Z,3.05
2023-08-12T14:07:09.375Z,2.67
2023-08-12T14:09:35.786Z,2.80
2023-08-12T14:12:02.322Z,2.38
2023-08-12T14:14:29.393Z,2.40
2023-08-12T14:16:55.964Z,3.08
2023-08-12T14:19:22.504Z,2.38
2023-08-12T14:21:48.943Z,2.40
2023-08-12T14:24:15.366Z,2.42
2023-08-12T14:26:41.844Z,2.10
2023-08-12T14:29:08.365Z,1.83
2023-08-12T14:31:35.347Z,1.80
2023-08-12T14:34:02.944Z,2.25
2023-08-12T14:36:29.347Z,2.10
2023-08-12T14:38:55.796Z,2.17
2023-08-12T14:41:22.189Z,2.22
2023-08-12T14:43:49.342Z,2.60
2023-08-12T14:46:16.107Z,2.05
2023-08-12T14:48:42.549Z,2.30
2023-08-12T14:51:09.123Z,2.60
2023-08-12T14:53:35.703Z,2.22
2023-08-12T14:56:02.125Z,2.33
2023-08-12T14:58:28.546Z,2.20
2023-08-12T15:00:55.112Z,2.30
2023-08-12T15:03:21.649Z,2.47
2023-08-12T15:05:48.196Z,2.47
2023-08-12T15:08:14.666Z,2.38
2023-08-12T15:10:41.138Z,2.08
2023-08-12T15:13:07.681Z,2.38
2023-08-12T15:15:34.069Z,2.30
2023-08-12T15:18:01.358Z,2.60
2023-08-12T15:20:28.536Z,1.77
2023-08-12T15:22:57.183Z,2.13
2023-08-12T15:25:26.080Z,1.92
2023-08-12T15:27:52.478Z,3.63
2023-08-12T15:30:18.887Z,1.85
2023-08-12T15:32:45.956Z,2.15
2023-08-12T15:35:12.417Z,2.22
2023-08-12T15:37:38.871Z,2.83
2023-08-12T15:40:05.779Z,2.28
2023-08-12T15:42:33.861Z,1.92
2023-08-12T15:45:00.346Z,2.20
2023-08-12T15:47:26.983Z,2.55
2023-08-12T16:09:47.101Z,2.00
2023-08-12T16:12:13.914Z,2.25
2023-08-12T16:14:40.527Z,3.03
2023-08-12T16:17:09.736Z,2.33
2023-08-12T16:19:36.710Z,3.58
2023-08-12T16:33:05.502Z,2.97
2023-08-12T16:35:32.079Z,2.60
2023-08-12T16:37:58.717Z,2.58
2023-08-12T16:40:28.456Z,2.72
2023-08-12T16:42:55.013Z,3.30
2023-08-12T16:45:21.476Z,2.55
2023-08-12T16:47:47.983Z,3.08
2023-08-12T16:50:14.486Z,3.47
2023-08-12T16:52:40.862Z,2.40
2023-08-12T16:55:07.652Z,2.40
2023-08-12T16:57:34.083Z,2.67
2023-08-12T17:00:04.150Z,3.10
2023-08-12T17:02:31.626Z,2.38
2023-08-12T17:04:58.416Z,2.13
2023-08-12T17:07:24.987Z,2.40
2023-08-12T17:09:51.434Z,2.95
2023-08-12T17:12:17.863Z,2.75
2023-08-12T17:14:44.322Z,2.67
2023-08-12T17:17:10.747Z,3.45
2023-08-12T17:19:40.368Z,2.85
2023-08-12T17:22:06.834Z,2.23
2023-08-12T17:24:34.210Z,3.33
2023-08-12T17:27:00.794Z,2.70
2023-08-12T17:29:27.172Z,2.45
2023-08-12T17:31:53.577Z,2.47
2023-08-12T17:34:20.006Z,3.03
2023-08-12T17:36:46.421Z,2.50
2023-08-12T17:39:12.854Z,2.65
2023-08-12T17:41:39.298Z,2.50
2023-08-12T17:44:06.266Z,2.72
2023-08-12T17:46:33.062Z,3.25
2023-08-12T17:48:59.479Z,3.13
2023-08-12T17:51:26.918Z,3.63
2023-08-12T17:53:53.431Z,3.97
2023-08-12T17:56:20.027Z,4.07
2023-08-12T17:58:46.497Z,3.83
2023-08-12T18:01:13.209Z,3.25
2023-08-12T18:03:39.978Z,3.75
2023-08-12T18:06:06.645Z,4.38
2023-08-12T18:08:33.459Z,3.75
2023-08-12T18:11:02.127Z,3.88
2023-08-12T18:13:28.656Z,3.45
2023-08-12T18:15:55.141Z,4.40
2023-08-12T18:18:21.619Z,4.93
2023-08-12T18:20:48.049Z,4.32
2023-08-12T18:23:14.552Z,4.65
2023-08-12T18:25:41.527Z,4.80
2023-08-12T18:28:08.060Z,3.83
2023-08-12T18:30:34.518Z,4.13
2023-08-12T18:33:04.266Z,4.05
2023-08-12T18:35:30.881Z,4.10
2023-08-12T18:37:57.311Z,4.07
2023-08-12T18:40:23.735Z,4.53
2023-08-12T18:42:50.318Z,4.38
2023-08-12T18:45:16.761Z,5.20
2023-08-12T18:47:43.184Z,4.95
2023-08-12T18:50:09.792Z,5.53
2023-08-12T18:52:36.248Z,5.38
2023-08-12T18:55:02.907Z,4.70
2023-08-12T18:57:31.017Z,4.57
2023-08-12T18:59:57.450Z,3.95
2023-08-12T19:02:23.914Z,4.65
2023-08-12T19:04:51.468Z,4.25
2023-08-12T19:07:17.900Z,4.50
2023-08-12T19:09:44.308Z,4.05
2023-08-12T19:12:10.891Z,3.97
2023-08-12T19:14:37.387Z,4.10
2023-08-12T19:17:04.417Z,3.65
2023-08-12T19:19:31.255Z,4.80
2023-08-12T19:21:58.013Z,3.58
2023-08-12T19:24:24.440Z,3.90
2023-08-12T19:26:51.919Z,4.68
2023-08-12T19:29:18.805Z,4.50
2023-08-12T19:31:45.293Z,3.72
2023-08-12T19:34:11.785Z,4.45
2023-08-12T19:36:38.182Z,4.32
2023-08-12T19:39:04.790Z,4.60
2023-08-12T19:41:34.267Z,4.65
2023-08-12T19:44:00.797Z,4.13
2023-08-12T19:46:27.330Z,4.47
2023-08-12T19:48:54.942Z,4.53
2023-08-12T19:51:21.358Z,3.97
2023-08-12T19:53:48.351Z,3.60
2023-08-12T19:56:14.970Z,4.32
2023-08-12T19:58:41.558Z,4.00
2023-08-12T20:01:08.342Z,3.38
2023-08-12T20:03:34.869Z,3.75
2023-08-12T20:06:01.828Z,3.80
2023-08-12T20:08:28.418Z,3.95
2023-08-12T20:10:56.275Z,3.83
2023-08-12T20:13:23.084Z,3.22
2023-08-12T20:15:59.275Z,3.58
2023-08-12T20:18:26.169Z,3.45
2023-08-12T20:20:58.418Z,3.40
2023-08-12T20:23:26.485Z,3.75
2023-08-12T20:25:52.925Z,4.47
2023-08-12T20:28:19.453Z,4.45
2023-08-12T20:30:45.926Z,4.20
2023-08-12T20:33:12.422Z,4.88
2023-08-12T20:35:38.919Z,3.72
2023-08-12T20:38:05.366Z,4.25
2023-08-12T20:40:33.079Z,4.28
2023-08-12T20:43:01.105Z,3.95
2023-08-12T20:45:27.633Z,5.38
2023-08-12T20:47:54.088Z,4.80
2023-08-12T20:50:24.941Z,4.75
2023-08-12T20:52:53.218Z,4.80
2023-08-12T20:55:20.831Z,5.07
2023-08-12T20:57:49.663Z,6.07
2023-08-12T21:00:16.344Z,5.30
2023-08-12T21:02:43.930Z,5.72
2023-08-12T21:05:10.599Z,4.38
2023-08-12T21:07:37.423Z,4.93
2023-08-12T21:10:04.103Z,4.43
2023-08-12T21:12:30.645Z,4.65
2023-08-12T21:14:57.104Z,4.78
2023-08-12T21:17:23.771Z,4.97
2023-08-12T21:19:50.423Z,4.47
2023-08-12T21:22:17.046Z,3.40
2023-08-12T21:24:43.561Z,3.80
2023-08-12T21:27:10.022Z,3.65
2023-08-12T21:29:36.455Z,2.75
2023-08-12T21:32:02.971Z,3.40
2023-08-12T21:34:29.386Z,2.53
2023-08-12T21:36:55.830Z,2.85
2023-08-12T21:39:22.242Z,2.55
2023-08-12T21:41:48.654Z,2.35
2023-08-12T21:44:15.110Z,2.50
2023-08-12T21:46:41.561Z,2.45
2023-08-12T21:49:07.988Z,2.53
2023-08-12T21:51:34.610Z,2.33
2023-08-12T21:54:01.004Z,2.92
2023-08-12T21:56:27.459Z,2.30
2023-08-12T21:58:54.545Z,2.20
2023-08-12T22:01:20.987Z,2.22
2023-08-12T22:03:47.391Z,2.67
2023-08-12T22:06:13.823Z,2.05
2023-08-12T22:08:40.206Z,2.20
2023-08-12T22:11:06.834Z,1.90
2023-08-12T22:13:33.238Z,1.88
2023-08-12T22:15:59.745Z,2.00
2023-08-12T22:18:26.147Z,2.00
2023-08-12T22:20:52.991Z,1.58
2023-08-12T22:23:21.674Z,2.30
2023-08-12T22:25:49.359Z,2.10
2023-08-12T22:28:15.776Z,1.70
2023-08-12T22:30:42.310Z,2.05
2023-08-12T22:33:08.984Z,2.13
2023-08-12T22:35:35.482Z,2.30
2023-08-12T22:38:01.945Z,2.00
2023-08-12T22:40:28.322Z,2.40
2023-08-12T22:42:54.746Z,2.08
2023-08-12T22:45:21.138Z,2.20
2023-08-12T22:47:47.690Z,2.42
2023-08-12T22:50:14.164Z,2.28
2023-08-12T22:52:41.357Z,2.42
2023-08-12T22:55:07.935Z,2.47
2023-08-12T22:57:34.560Z,2.55
2023-08-12T23:00:01.014Z,3.10
2023-08-12T23:02:27.617Z,2.67
2023-08-12T23:04:54.108Z,2.60
2023-08-12T23:07:20.561Z,1.90
2023-08-12T23:09:46.975Z,2.50
2023-08-12T23:12:13.600Z,2.40
2023-08-12T23:14:40.187Z,2.55
2023-08-12T23:17:06.654Z,2.70
2023-08-12T23:19:33.077Z,2.30
2023-08-12T23:21:59.520Z,2.17
2023-08-12T23:24:25.916Z,2.75
2023-08-12T23:26:52.344Z,2.60
2023-08-12T23:29:18.893Z,2.53
2023-08-12T23:31:45.329Z,2.97
2023-08-12T23:34:11.757Z,2.60
2023-08-12T23:36:38.171Z,2.50
2023-08-12T23:39:04.749Z,2.40
2023-08-12T23:41:31.375Z,2.67
2023-08-12T23:43:57.790Z,2.60
2023-08-12T23:46:24.203Z,3.22
2023-08-12T23:48:50.659Z,3.22
2023-08-12T23:51:17.051Z,3.03
2023-08-12T23:53:43.504Z,3.45
2023-08-12T23:56:09.896Z,3.00
2023-08-12T23:58:36.359Z,3.08
